Mayhew, North Carolina
Current Conditions -  °F | °C
As of 10:55 PM on Sunday 23 Nov 2014 (Local Time) from KJQF Reporting Station
Broken Clouds Broken Clouds  
Wind Chill: 64°   Ceiling: 4800
Heat Index: 64°   Visibility: 10mi
Dew Point: 61°   Wind: 8mph
Humidity: 88%   Direction: 170°S
Pressure: 29.76"   Gusts: NA
Location:  35.5757°N, 80.819°W
Report Text: KJQF 240355Z AUTO 17007KT 10SM SCT041 BKN048 BKN050 18/16 A2976 RMK AO2 LTG DSNT SE
Loading
Personal Weather Stations






























Interactive Weather Map New forecast layout! Learn more

10-Day Weather Forecast

Advertisements
Track Severe Weather on mobile